sensor_id;sensor_type;location;lat;lon;timestamp;temperature;humidity
21037;DHT22;10677;50.942;4.028;2023-07-31T00:02:03;18.50;99.90
21037;DHT22;10677;50.942;4.028;2023-07-31T00:04:29;18.50;99.90
21037;DHT22;10677;50.942;4.028;2023-07-31T00:06:54;18.50;99.90
21037;DHT22;10677;50.942;4.028;2023-07-31T00:09:20;18.50;99.90
21037;DHT22;10677;50.942;4.028;2023-07-31T00:11:46;18.40;99.90
21037;DHT22;10677;50.942;4.028;2023-07-31T00:14:11;18.40;99.90
21037;DHT22;10677;50.942;4.028;2023-07-31T00:16:37;18.40;99.90
21037;DHT22;10677;50.942;4.028;2023-07-31T00:19:02;18.40;99.90
21037;DHT22;10677;50.942;4.028;2023-07-31T00:21:28;18.40;99.90
21037;DHT22;10677;50.942;4.028;2023-07-31T00:23:54;18.40;99.90
21037;DHT22;10677;50.942;4.028;2023-07-31T00:26:19;18.50;99.90
21037;DHT22;10677;50.942;4.028;2023-07-31T00:28:45;18.50;99.90
21037;DHT22;10677;50.942;4.028;2023-07-31T00:31:10;18.50;99.90
21037;DHT22;10677;50.942;4.028;2023-07-31T00:33:37;18.50;99.90
21037;DHT22;10677;50.942;4.028;2023-07-31T00:36:03;18.50;99.90
21037;DHT22;10677;50.942;4.028;2023-07-31T00:38:29;18.50;99.90
21037;DHT22;10677;50.942;4.028;2023-07-31T00:40:54;18.60;99.90
21037;DHT22;10677;50.942;4.028;2023-07-31T00:43:20;18.60;99.90
21037;DHT22;10677;50.942;4.028;2023-07-31T00:45:45;18.60;99.90
21037;DHT22;10677;50.942;4.028;2023-07-31T00:48:11;18.70;99.90
21037;DHT22;10677;50.942;4.028;2023-07-31T00:50:37;18.60;99.90
21037;DHT22;10677;50.942;4.028;2023-07-31T00:53:04;18.60;99.90
21037;DHT22;10677;50.942;4.028;2023-07-31T00:55:30;18.60;99.90
21037;DHT22;10677;50.942;4.028;2023-07-31T00:57:56;18.60;99.90
21037;DHT22;10677;50.942;4.028;2023-07-31T01:00:22;18.60;99.90
21037;DHT22;10677;50.942;4.028;2023-07-31T01:02:51;18.60;99.90
21037;DHT22;10677;50.942;4.028;2023-07-31T01:05:25;18.70;99.90
21037;DHT22;10677;50.942;4.028;2023-07-31T01:11:17;18.70;99.90
21037;DHT22;10677;50.942;4.028;2023-07-31T01:13:44;18.70;99.90
21037;DHT22;10677;50.942;4.028;2023-07-31T01:16:11;18.70;99.90
21037;DHT22;10677;50.942;4.028;2023-07-31T01:18:37;18.70;99.90
21037;DHT22;10677;50.942;4.028;2023-07-31T01:26:38;18.60;99.90
21037;DHT22;10677;50.942;4.028;2023-07-31T01:31:50;18.80;99.90
21037;DHT22;10677;50.942;4.028;2023-07-31T01:34:19;18.80;99.90
21037;DHT22;10677;50.942;4.028;2023-07-31T01:36:46;19.00;99.90
21037;DHT22;10677;50.942;4.028;2023-07-31T01:39:11;19.00;99.90
21037;DHT22;10677;50.942;4.028;2023-07-31T01:41:37;19.00;99.90
21037;DHT22;10677;50.942;4.028;2023-07-31T01:44:03;19.00;99.90
21037;DHT22;10677;50.942;4.028;2023-07-31T01:46:28;19.00;99.90
21037;DHT22;10677;50.942;4.028;2023-07-31T01:48:54;19.00;99.90
21037;DHT22;10677;50.942;4.028;2023-07-31T01:51:20;19.00;99.90
21037;DHT22;10677;50.942;4.028;2023-07-31T01:53:46;19.00;99.90
21037;DHT22;10677;50.942;4.028;2023-07-31T01:56:11;18.90;99.90
21037;DHT22;10677;50.942;4.028;2023-07-31T01:58:37;18.90;99.90
21037;DHT22;10677;50.942;4.028;2023-07-31T02:01:02;18.90;99.90
21037;DHT22;10677;50.942;4.028;2023-07-31T02:03:28;18.80;99.90
21037;DHT22;10677;50.942;4.028;2023-07-31T02:05:54;18.80;99.90
21037;DHT22;10677;50.942;4.028;2023-07-31T02:08:20;18.80;99.90
21037;DHT22;10677;50.942;4.028;2023-07-31T02:10:45;18.90;99.90
21037;DHT22;10677;50.942;4.028;2023-07-31T02:13:11;18.80;99.90
21037;DHT22;10677;50.942;4.028;2023-07-31T02:15:37;18.80;99.90
21037;DHT22;10677;50.942;4.028;2023-07-31T02:18:03;18.80;99.90
21037;DHT22;10677;50.942;4.028;2023-07-31T02:20:28;18.80;99.90
21037;DHT22;10677;50.942;4.028;2023-07-31T02:22:54;18.80;99.90
21037;DHT22;10677;50.942;4.028;2023-07-31T02:25:19;18.80;99.90
21037;DHT22;10677;50.942;4.028;2023-07-31T02:27:45;18.80;99.90
21037;DHT22;10677;50.942;4.028;2023-07-31T02:30:11;18.80;99.90
21037;DHT22;10677;50.942;4.028;2023-07-31T02:32:36;18.70;99.90
21037;DHT22;10677;50.942;4.028;2023-07-31T02:35:02;18.70;99.90
21037;DHT22;10677;50.942;4.028;2023-07-31T02:37:28;18.70;99.90
21037;DHT22;10677;50.942;4.028;2023-07-31T02:39:54;18.70;99.90
21037;DHT22;10677;50.942;4.028;2023-07-31T02:42:20;18.70;99.90
21037;DHT22;10677;50.942;4.028;2023-07-31T02:44:46;18.70;99.90
21037;DHT22;10677;50.942;4.028;2023-07-31T02:47:11;18.80;99.90
21037;DHT22;10677;50.942;4.028;2023-07-31T02:49:37;18.80;99.90
21037;DHT22;10677;50.942;4.028;2023-07-31T02:52:03;18.70;99.90
21037;DHT22;10677;50.942;4.028;2023-07-31T02:54:28;18.80;99.90
21037;DHT22;10677;50.942;4.028;2023-07-31T02:56:54;18.70;99.90
21037;DHT22;10677;50.942;4.028;2023-07-31T02:59:20;18.70;99.90
21037;DHT22;10677;50.942;4.028;2023-07-31T03:01:46;18.80;99.90
21037;DHT22;10677;50.942;4.028;2023-07-31T03:04:11;18.80;99.90
21037;DHT22;10677;50.942;4.028;2023-07-31T03:06:37;18.80;99.90
21037;DHT22;10677;50.942;4.028;2023-07-31T03:09:03;18.70;99.90
21037;DHT22;10677;50.942;4.028;2023-07-31T03:11:28;18.80;99.90
21037;DHT22;10677;50.942;4.028;2023-07-31T03:13:54;18.70;99.90
21037;DHT22;10677;50.942;4.028;2023-07-31T03:16:20;18.70;99.90
21037;DHT22;10677;50.942;4.028;2023-07-31T03:18:45;18.70;99.90
21037;DHT22;10677;50.942;4.028;2023-07-31T03:21:11;18.70;99.90
21037;DHT22;10677;50.942;4.028;2023-07-31T03:23:37;18.70;99.90
21037;DHT22;10677;50.942;4.028;2023-07-31T03:26:07;18.70;99.90
21037;DHT22;10677;50.942;4.028;2023-07-31T03:28:32;18.70;99.90
21037;DHT22;10677;50.942;4.028;2023-07-31T03:30:58;18.60;99.90
21037;DHT22;10677;50.942;4.028;2023-07-31T03:33:24;18.60;99.90
21037;DHT22;10677;50.942;4.028;2023-07-31T03:35:50;18.50;99.90
21037;DHT22;10677;50.942;4.028;2023-07-31T03:38:15;18.50;99.90
21037;DHT22;10677;50.942;4.028;2023-07-31T03:40:41;18.30;99.90
21037;DHT22;10677;50.942;4.028;2023-07-31T03:43:07;18.30;99.90
21037;DHT22;10677;50.942;4.028;2023-07-31T03:45:32;18.20;99.90
21037;DHT22;10677;50.942;4.028;2023-07-31T03:47:58;18.20;99.90
21037;DHT22;10677;50.942;4.028;2023-07-31T03:50:24;18.20;99.90
21037;DHT22;10677;50.942;4.028;2023-07-31T03:52:50;18.20;99.90
21037;DHT22;10677;50.942;4.028;2023-07-31T03:55:16;18.20;99.90
21037;DHT22;10677;50.942;4.028;2023-07-31T03:57:41;18.10;99.90
21037;DHT22;10677;50.942;4.028;2023-07-31T04:00:07;18.10;99.90
21037;DHT22;10677;50.942;4.028;2023-07-31T04:02:33;18.10;99.90
21037;DHT22;10677;50.942;4.028;2023-07-31T04:04:59;18.10;99.90
21037;DHT22;10677;50.942;4.028;2023-07-31T04:07:24;18.10;99.90
21037;DHT22;10677;50.942;4.028;2023-07-31T04:09:50;18.10;99.90
21037;DHT22;10677;50.942;4.028;2023-07-31T04:12:16;18.10;99.90
21037;DHT22;10677;50.942;4.028;2023-07-31T04:14:41;18.00;99.90
21037;DHT22;10677;50.942;4.028;2023-07-31T04:17:07;18.00;99.90
21037;DHT22;10677;50.942;4.028;2023-07-31T04:19:32;18.00;99.90
21037;DHT22;10677;50.942;4.028;2023-07-31T04:21:58;18.00;99.90
21037;DHT22;10677;50.942;4.028;2023-07-31T04:24:24;18.00;99.90
21037;DHT22;10677;50.942;4.028;2023-07-31T04:26:50;17.90;99.90
21037;DHT22;10677;50.942;4.028;2023-07-31T04:29:16;18.00;99.90
21037;DHT22;10677;50.942;4.028;2023-07-31T04:31:42;18.00;99.90
21037;DHT22;10677;50.942;4.028;2023-07-31T04:34:07;18.10;99.90
21037;DHT22;10677;50.942;4.028;2023-07-31T04:36:34;18.10;99.90
21037;DHT22;10677;50.942;4.028;2023-07-31T04:39:00;18.10;99.90
21037;DHT22;10677;50.942;4.028;2023-07-31T04:41:26;18.10;99.90
21037;DHT22;10677;50.942;4.028;2023-07-31T04:43:52;18.10;99.90
21037;DHT22;10677;50.942;4.028;2023-07-31T04:46:17;18.10;99.90
21037;DHT22;10677;50.942;4.028;2023-07-31T04:48:43;18.10;99.90
21037;DHT22;10677;50.942;4.028;2023-07-31T04:51:09;18.10;99.90
21037;DHT22;10677;50.942;4.028;2023-07-31T04:53:35;18.10;99.90
21037;DHT22;10677;50.942;4.028;2023-07-31T04:56:01;18.00;99.90
21037;DHT22;10677;50.942;4.028;2023-07-31T04:58:26;18.00;99.90
21037;DHT22;10677;50.942;4.028;2023-07-31T05:00:52;17.90;99.90
21037;DHT22;10677;50.942;4.028;2023-07-31T05:03:18;17.90;99.90
21037;DHT22;10677;50.942;4.028;2023-07-31T05:05:43;17.90;99.90
21037;DHT22;10677;50.942;4.028;2023-07-31T05:08:09;17.80;99.90
21037;DHT22;10677;50.942;4.028;2023-07-31T05:10:35;17.80;99.90
21037;DHT22;10677;50.942;4.028;2023-07-31T05:13:00;17.80;99.90
21037;DHT22;10677;50.942;4.028;2023-07-31T05:15:26;17.70;99.90
21037;DHT22;10677;50.942;4.028;2023-07-31T05:17:51;17.80;99.90
21037;DHT22;10677;50.942;4.028;2023-07-31T05:20:17;17.70;99.90
21037;DHT22;10677;50.942;4.028;2023-07-31T05:22:43;17.60;99.90
21037;DHT22;10677;50.942;4.028;2023-07-31T05:25:09;17.60;99.90
21037;DHT22;10677;50.942;4.028;2023-07-31T05:27:34;17.70;99.90
21037;DHT22;10677;50.942;4.028;2023-07-31T05:30:00;17.70;99.90
21037;DHT22;10677;50.942;4.028;2023-07-31T05:32:26;17.70;99.90
21037;DHT22;10677;50.942;4.028;2023-07-31T05:34:52;17.80;99.90
21037;DHT22;10677;50.942;4.028;2023-07-31T05:37:18;17.80;99.90
21037;DHT22;10677;50.942;4.028;2023-07-31T05:39:43;17.80;99.90
21037;DHT22;10677;50.942;4.028;2023-07-31T05:42:09;17.80;99.90
21037;DHT22;10677;50.942;4.028;2023-07-31T05:44:35;17.90;99.90
21037;DHT22;10677;50.942;4.028;2023-07-31T05:47:00;17.80;99.90
21037;DHT22;10677;50.942;4.028;2023-07-31T05:49:26;17.80;99.90
21037;DHT22;10677;50.942;4.028;2023-07-31T05:51:52;17.90;99.90
21037;DHT22;10677;50.942;4.028;2023-07-31T05:54:17;17.90;99.90
21037;DHT22;10677;50.942;4.028;2023-07-31T05:56:43;17.90;99.90
21037;DHT22;10677;50.942;4.028;2023-07-31T05:59:11;17.90;99.90
21037;DHT22;10677;50.942;4.028;2023-07-31T06:01:37;17.90;99.90
21037;DHT22;10677;50.942;4.028;2023-07-31T06:04:03;17.90;99.90
21037;DHT22;10677;50.942;4.028;2023-07-31T06:06:29;17.90;99.90
21037;DHT22;10677;50.942;4.028;2023-07-31T06:08:55;17.90;99.90
21037;DHT22;10677;50.942;4.028;2023-07-31T06:11:21;17.90;99.90
21037;DHT22;10677;50.942;4.028;2023-07-31T06:13:47;18.00;99.90
21037;DHT22;10677;50.942;4.028;2023-07-31T06:16:14;18.00;99.90
21037;DHT22;10677;50.942;4.028;2023-07-31T06:18:41;18.10;99.90
21037;DHT22;10677;50.942;4.028;2023-07-31T06:21:07;18.20;99.90
21037;DHT22;10677;50.942;4.028;2023-07-31T06:23:33;18.30;99.90
21037;DHT22;10677;50.942;4.028;2023-07-31T06:25:58;18.30;99.90
21037;DHT22;10677;50.942;4.028;2023-07-31T06:28:28;18.40;99.90
21037;DHT22;10677;50.942;4.028;2023-07-31T06:30:57;18.40;99.90
21037;DHT22;10677;50.942;4.028;2023-07-31T06:33:30;18.40;99.90
21037;DHT22;10677;50.942;4.028;2023-07-31T06:35:56;18.40;99.90
21037;DHT22;10677;50.942;4.028;2023-07-31T06:38:26;18.40;99.90
21037;DHT22;10677;50.942;4.028;2023-07-31T06:40:52;18.50;99.90
21037;DHT22;10677;50.942;4.028;2023-07-31T06:43:17;18.60;99.90
21037;DHT22;10677;50.942;4.028;2023-07-31T06:45:43;18.90;99.90
21037;DHT22;10677;50.942;4.028;2023-07-31T06:48:09;18.90;99.90
21037;DHT22;10677;50.942;4.028;2023-07-31T06:50:35;19.10;99.90
21037;DHT22;10677;50.942;4.028;2023-07-31T06:53:01;19.20;99.90
21037;DHT22;10677;50.942;4.028;2023-07-31T06:55:28;19.10;99.90
21037;DHT22;10677;50.942;4.028;2023-07-31T06:57:54;19.10;99.90
21037;DHT22;10677;50.942;4.028;2023-07-31T07:00:21;19.00;99.90
21037;DHT22;10677;50.942;4.028;2023-07-31T07:02:47;19.00;99.90
21037;DHT22;10677;50.942;4.028;2023-07-31T07:05:14;19.00;99.90
21037;DHT22;10677;50.942;4.028;2023-07-31T07:07:40;19.00;99.90
21037;DHT22;10677;50.942;4.028;2023-07-31T07:10:06;18.90;99.90
21037;DHT22;10677;50.942;4.028;2023-07-31T07:12:33;19.10;99.90
21037;DHT22;10677;50.942;4.028;2023-07-31T07:14:59;19.10;99.90
21037;DHT22;10677;50.942;4.028;2023-07-31T07:17:25;19.10;99.90
21037;DHT22;10677;50.942;4.028;2023-07-31T07:19:51;19.20;99.90
21037;DHT22;10677;50.942;4.028;2023-07-31T07:22:18;19.10;99.90
21037;DHT22;10677;50.942;4.028;2023-07-31T07:24:43;19.10;99.90
21037;DHT22;10677;50.942;4.028;2023-07-31T07:27:09;19.10;99.90
21037;DHT22;10677;50.942;4.028;2023-07-31T07:29:35;19.10;99.90
21037;DHT22;10677;50.942;4.028;2023-07-31T07:32:01;19.10;99.90
21037;DHT22;10677;50.942;4.028;2023-07-31T07:34:27;19.20;99.90
21037;DHT22;10677;50.942;4.028;2023-07-31T07:36:53;19.30;99.90
21037;DHT22;10677;50.942;4.028;2023-07-31T07:39:19;19.30;99.90
21037;DHT22;10677;50.942;4.028;2023-07-31T07:41:45;19.20;99.90
21037;DHT22;10677;50.942;4.028;2023-07-31T07:44:12;19.30;99.90
21037;DHT22;10677;50.942;4.028;2023-07-31T07:46:38;19.40;99.90
21037;DHT22;10677;50.942;4.028;2023-07-31T07:49:04;19.50;99.90
21037;DHT22;10677;50.942;4.028;2023-07-31T07:51:30;19.70;99.90
21037;DHT22;10677;50.942;4.028;2023-07-31T07:54:00;19.80;99.90
21037;DHT22;10677;50.942;4.028;2023-07-31T07:56:26;19.80;99.90
21037;DHT22;10677;50.942;4.028;2023-07-31T07:58:53;19.90;99.90
21037;DHT22;10677;50.942;4.028;2023-07-31T08:01:19;20.00;99.90
21037;DHT22;10677;50.942;4.028;2023-07-31T08:03:44;19.90;99.90
21037;DHT22;10677;50.942;4.028;2023-07-31T08:06:10;19.70;99.90
21037;DHT22;10677;50.942;4.028;2023-07-31T08:08:39;19.50;99.90
21037;DHT22;10677;50.942;4.028;2023-07-31T08:11:06;19.50;99.90
21037;DHT22;10677;50.942;4.028;2023-07-31T08:13:32;19.50;99.90
21037;DHT22;10677;50.942;4.028;2023-07-31T08:15:57;19.70;99.90
21037;DHT22;10677;50.942;4.028;2023-07-31T08:18:23;19.90;99.90
21037;DHT22;10677;50.942;4.028;2023-07-31T08:20:49;20.00;99.90
21037;DHT22;10677;50.942;4.028;2023-07-31T08:23:15;20.10;99.90
21037;DHT22;10677;50.942;4.028;2023-07-31T08:25:40;20.10;99.90
21037;DHT22;10677;50.942;4.028;2023-07-31T08:28:06;20.10;99.90
21037;DHT22;10677;50.942;4.028;2023-07-31T08:30:32;20.10;99.90
21037;DHT22;10677;50.942;4.028;2023-07-31T08:32:59;20.10;99.90
21037;DHT22;10677;50.942;4.028;2023-07-31T08:35:26;20.40;99.90
21037;DHT22;10677;50.942;4.028;2023-07-31T08:37:53;20.30;99.90
21037;DHT22;10677;50.942;4.028;2023-07-31T08:40:19;20.10;99.90
21037;DHT22;10677;50.942;4.028;2023-07-31T08:42:46;20.00;99.90
21037;DHT22;10677;50.942;4.028;2023-07-31T08:45:17;20.10;99.90
21037;DHT22;10677;50.942;4.028;2023-07-31T08:47:51;20.10;99.90
21037;DHT22;10677;50.942;4.028;2023-07-31T08:50:20;20.30;99.90
21037;DHT22;10677;50.942;4.028;2023-07-31T08:52:49;20.40;99.90
21037;DHT22;10677;50.942;4.028;2023-07-31T08:55:15;20.40;99.90
21037;DHT22;10677;50.942;4.028;2023-07-31T08:57:42;20.30;99.90
21037;DHT22;10677;50.942;4.028;2023-07-31T09:00:09;20.60;99.90
21037;DHT22;10677;50.942;4.028;2023-07-31T09:03:01;20.70;99.90
21037;DHT22;10677;50.942;4.028;2023-07-31T09:05:29;20.90;99.90
21037;DHT22;10677;50.942;4.028;2023-07-31T09:07:58;21.00;99.90
21037;DHT22;10677;50.942;4.028;2023-07-31T09:10:24;21.00;99.90
21037;DHT22;10677;50.942;4.028;2023-07-31T09:12:51;21.10;99.90
21037;DHT22;10677;50.942;4.028;2023-07-31T09:15:20;21.10;99.90
21037;DHT22;10677;50.942;4.028;2023-07-31T09:17:46;21.10;99.90
21037;DHT22;10677;50.942;4.028;2023-07-31T09:20:19;21.20;99.90
21037;DHT22;10677;50.942;4.028;2023-07-31T09:22:48;21.00;99.90
21037;DHT22;10677;50.942;4.028;2023-07-31T09:25:23;20.70;99.90
21037;DHT22;10677;50.942;4.028;2023-07-31T09:28:00;20.60;99.90
21037;DHT22;10677;50.942;4.028;2023-07-31T09:30:26;20.60;99.90
21037;DHT22;10677;50.942;4.028;2023-07-31T09:33:02;20.60;99.90
21037;DHT22;10677;50.942;4.028;2023-07-31T09:35:32;20.40;99.90
21037;DHT22;10677;50.942;4.028;2023-07-31T09:38:05;20.30;99.90
21037;DHT22;10677;50.942;4.028;2023-07-31T09:40:34;20.20;99.90
21037;DHT22;10677;50.942;4.028;2023-07-31T09:43:04;20.00;99.90
21037;DHT22;10677;50.942;4.028;2023-07-31T09:45:35;19.70;99.90
21037;DHT22;10677;50.942;4.028;2023-07-31T09:48:17;19.70;99.90
21037;DHT22;10677;50.942;4.028;2023-07-31T09:50:48;19.70;99.90
21037;DHT22;10677;50.942;4.028;2023-07-31T09:53:15;19.80;99.90
21037;DHT22;10677;50.942;4.028;2023-07-31T09:55:42;19.70;99.90
21037;DHT22;10677;50.942;4.028;2023-07-31T09:58:10;19.70;99.90
21037;DHT22;10677;50.942;4.028;2023-07-31T10:00:36;19.70;99.90
21037;DHT22;10677;50.942;4.028;2023-07-31T10:03:05;19.60;99.90
21037;DHT22;10677;50.942;4.028;2023-07-31T10:05:39;19.50;99.90
21037;DHT22;10677;50.942;4.028;2023-07-31T10:08:07;19.50;99.90
21037;DHT22;10677;50.942;4.028;2023-07-31T10:10:36;19.50;99.90
21037;DHT22;10677;50.942;4.028;2023-07-31T10:13:02;19.60;99.90
21037;DHT22;10677;50.942;4.028;2023-07-31T10:15:30;19.70;99.90
21037;DHT22;10677;50.942;4.028;2023-07-31T10:17:56;20.00;99.90
21037;DHT22;10677;50.942;4.028;2023-07-31T10:20:23;20.10;99.90
21037;DHT22;10677;50.942;4.028;2023-07-31T10:22:51;20.10;99.90
21037;DHT22;10677;50.942;4.028;2023-07-31T10:25:18;20.20;99.90
21037;DHT22;10677;50.942;4.028;2023-07-31T10:27:47;20.00;99.90
21037;DHT22;10677;50.942;4.028;2023-07-31T10:30:15;20.10;99.90
21037;DHT22;10677;50.942;4.028;2023-07-31T10:32:43;20.20;99.90
21037;DHT22;10677;50.942;4.028;2023-07-31T10:35:10;20.20;99.90
21037;DHT22;10677;50.942;4.028;2023-07-31T10:37:38;20.40;99.90
21037;DHT22;10677;50.942;4.028;2023-07-31T10:40:05;20.60;99.90
21037;DHT22;10677;50.942;4.028;2023-07-31T10:42:37;20.70;99.90
21037;DHT22;10677;50.942;4.028;2023-07-31T10:45:07;20.70;99.90
21037;DHT22;10677;50.942;4.028;2023-07-31T10:47:45;20.70;99.90
21037;DHT22;10677;50.942;4.028;2023-07-31T10:50:22;20.70;99.90
21037;DHT22;10677;50.942;4.028;2023-07-31T10:52:51;20.70;99.90
21037;DHT22;10677;50.942;4.028;2023-07-31T10:55:28;20.70;99.90
21037;DHT22;10677;50.942;4.028;2023-07-31T10:57:55;20.80;99.90
21037;DHT22;10677;50.942;4.028;2023-07-31T11:06:01;21.00;99.90
21037;DHT22;10677;50.942;4.028;2023-07-31T11:08:40;21.00;99.90
21037;DHT22;10677;50.942;4.028;2023-07-31T11:11:08;20.90;99.90
21037;DHT22;10677;50.942;4.028;2023-07-31T11:16:06;20.90;99.90
21037;DHT22;10677;50.942;4.028;2023-07-31T11:18:32;21.00;99.90
21037;DHT22;10677;50.942;4.028;2023-07-31T11:20:58;20.80;99.90
21037;DHT22;10677;50.942;4.028;2023-07-31T11:23:24;20.80;99.90
21037;DHT22;10677;50.942;4.028;2023-07-31T11:25:50;20.70;99.90
21037;DHT22;10677;50.942;4.028;2023-07-31T11:28:18;20.60;99.90
21037;DHT22;10677;50.942;4.028;2023-07-31T11:30:45;20.50;99.90
21037;DHT22;10677;50.942;4.028;2023-07-31T11:33:12;20.60;99.90
21037;DHT22;10677;50.942;4.028;2023-07-31T11:35:46;20.60;99.90
21037;DHT22;10677;50.942;4.028;2023-07-31T11:38:20;20.50;99.90
21037;DHT22;10677;50.942;4.028;2023-07-31T11:40:54;20.50;99.90
21037;DHT22;10677;50.942;4.028;2023-07-31T11:43:20;20.60;99.90
21037;DHT22;10677;50.942;4.028;2023-07-31T11:45:48;20.80;99.90
21037;DHT22;10677;50.942;4.028;2023-07-31T11:48:28;20.80;99.90
21037;DHT22;10677;50.942;4.028;2023-07-31T11:50:57;20.80;99.90
21037;DHT22;10677;50.942;4.028;2023-07-31T11:54:16;20.90;99.90
21037;DHT22;10677;50.942;4.028;2023-07-31T11:56:37;21.00;99.90
21037;DHT22;10677;50.942;4.028;2023-07-31T11:59:02;21.20;99.90
21037;DHT22;10677;50.942;4.028;2023-07-31T12:01:31;21.30;99.90
21037;DHT22;10677;50.942;4.028;2023-07-31T12:03:57;21.40;99.90
21037;DHT22;10677;50.942;4.028;2023-07-31T12:06:33;21.30;99.90
21037;DHT22;10677;50.942;4.028;2023-07-31T12:09:05;21.30;99.90
21037;DHT22;10677;50.942;4.028;2023-07-31T12:11:30;21.40;99.90
21037;DHT22;10677;50.942;4.028;2023-07-31T12:13:56;21.30;99.90
21037;DHT22;10677;50.942;4.028;2023-07-31T12:16:26;21.30;99.90
21037;DHT22;10677;50.942;4.028;2023-07-31T12:18:52;21.20;99.90
21037;DHT22;10677;50.942;4.028;2023-07-31T12:21:19;21.30;99.90
21037;DHT22;10677;50.942;4.028;2023-07-31T12:23:45;21.40;99.90
21037;DHT22;10677;50.942;4.028;2023-07-31T12:26:13;21.30;99.90
21037;DHT22;10677;50.942;4.028;2023-07-31T12:28:46;21.30;99.90
21037;DHT22;10677;50.942;4.028;2023-07-31T12:31:21;21.30;99.90
21037;DHT22;10677;50.942;4.028;2023-07-31T12:33:48;21.40;99.90
21037;DHT22;10677;50.942;4.028;2023-07-31T12:36:20;21.30;99.90
21037;DHT22;10677;50.942;4.028;2023-07-31T12:38:46;21.50;99.90
21037;DHT22;10677;50.942;4.028;2023-07-31T12:41:12;21.40;99.90
21037;DHT22;10677;50.942;4.028;2023-07-31T12:43:40;21.30;99.90
21037;DHT22;10677;50.942;4.028;2023-07-31T12:46:06;21.20;99.90
21037;DHT22;10677;50.942;4.028;2023-07-31T12:48:36;21.10;99.90
21037;DHT22;10677;50.942;4.028;2023-07-31T12:51:02;20.90;99.90
21037;DHT22;10677;50.942;4.028;2023-07-31T12:53:28;20.70;99.90
21037;DHT22;10677;50.942;4.028;2023-07-31T12:55:55;20.60;99.90
21037;DHT22;10677;50.942;4.028;2023-07-31T12:58:20;20.50;99.90
21037;DHT22;10677;50.942;4.028;2023-07-31T13:00:46;20.20;99.90
21037;DHT22;10677;50.942;4.028;2023-07-31T13:03:12;20.00;99.90
21037;DHT22;10677;50.942;4.028;2023-07-31T13:05:37;19.90;99.90
21037;DHT22;10677;50.942;4.028;2023-07-31T13:08:03;19.70;99.90
21037;DHT22;10677;50.942;4.028;2023-07-31T13:10:29;19.60;99.90
21037;DHT22;10677;50.942;4.028;2023-07-31T13:12:55;19.50;99.90
21037;DHT22;10677;50.942;4.028;2023-07-31T13:15:21;19.40;99.90
21037;DHT22;10677;50.942;4.028;2023-07-31T13:17:47;19.40;99.90
21037;DHT22;10677;50.942;4.028;2023-07-31T13:20:12;19.40;99.90
21037;DHT22;10677;50.942;4.028;2023-07-31T13:22:38;19.40;99.90
21037;DHT22;10677;50.942;4.028;2023-07-31T13:25:04;19.30;99.90
21037;DHT22;10677;50.942;4.028;2023-07-31T13:27:30;19.30;99.90
21037;DHT22;10677;50.942;4.028;2023-07-31T13:29:56;19.20;99.90
21037;DHT22;10677;50.942;4.028;2023-07-31T13:32:22;19.20;99.90
21037;DHT22;10677;50.942;4.028;2023-07-31T13:34:48;19.20;99.90
21037;DHT22;10677;50.942;4.028;2023-07-31T13:37:14;19.20;99.90
21037;DHT22;10677;50.942;4.028;2023-07-31T13:39:40;19.30;99.90
21037;DHT22;10677;50.942;4.028;2023-07-31T13:42:07;19.30;99.90
21037;DHT22;10677;50.942;4.028;2023-07-31T13:44:37;19.20;99.90
21037;DHT22;10677;50.942;4.028;2023-07-31T13:47:03;19.10;99.90
21037;DHT22;10677;50.942;4.028;2023-07-31T13:49:29;19.10;99.90
21037;DHT22;10677;50.942;4.028;2023-07-31T13:51:55;19.10;99.90
21037;DHT22;10677;50.942;4.028;2023-07-31T13:54:22;19.10;99.90
21037;DHT22;10677;50.942;4.028;2023-07-31T13:56:48;19.10;99.90
21037;DHT22;10677;50.942;4.028;2023-07-31T13:59:13;19.10;99.90
21037;DHT22;10677;50.942;4.028;2023-07-31T14:01:41;19.10;99.90
21037;DHT22;10677;50.942;4.028;2023-07-31T14:04:07;19.20;99.90
21037;DHT22;10677;50.942;4.028;2023-07-31T14:06:33;19.10;99.90
21037;DHT22;10677;50.942;4.028;2023-07-31T14:08:58;19.20;99.90
21037;DHT22;10677;50.942;4.028;2023-07-31T14:11:24;19.20;99.90
21037;DHT22;10677;50.942;4.028;2023-07-31T14:13:53;19.20;99.90
21037;DHT22;10677;50.942;4.028;2023-07-31T14:16:18;19.00;99.90
21037;DHT22;10677;50.942;4.028;2023-07-31T14:18:44;19.00;99.90
21037;DHT22;10677;50.942;4.028;2023-07-31T14:21:11;18.90;99.90
21037;DHT22;10677;50.942;4.028;2023-07-31T14:23:37;19.00;99.90
21037;DHT22;10677;50.942;4.028;2023-07-31T14:26:03;19.00;99.90
21037;DHT22;10677;50.942;4.028;2023-07-31T14:28:28;19.00;99.90
21037;DHT22;10677;50.942;4.028;2023-07-31T14:30:54;19.10;99.90
21037;DHT22;10677;50.942;4.028;2023-07-31T14:33:19;19.10;99.90
21037;DHT22;10677;50.942;4.028;2023-07-31T14:35:45;19.10;99.90
21037;DHT22;10677;50.942;4.028;2023-07-31T14:38:11;19.00;99.90
21037;DHT22;10677;50.942;4.028;2023-07-31T14:40:36;19.00;99.90
21037;DHT22;10677;50.942;4.028;2023-07-31T14:43:03;19.10;99.90
21037;DHT22;10677;50.942;4.028;2023-07-31T14:45:29;19.00;99.90
21037;DHT22;10677;50.942;4.028;2023-07-31T14:47:55;19.00;99.90
21037;DHT22;10677;50.942;4.028;2023-07-31T14:50:20;19.00;99.90
21037;DHT22;10677;50.942;4.028;2023-07-31T14:52:48;18.90;99.90
21037;DHT22;10677;50.942;4.028;2023-07-31T14:55:14;18.90;99.90
21037;DHT22;10677;50.942;4.028;2023-07-31T14:57:40;18.80;99.90
21037;DHT22;10677;50.942;4.028;2023-07-31T15:00:06;18.90;99.90
21037;DHT22;10677;50.942;4.028;2023-07-31T15:02:36;18.90;99.90
21037;DHT22;10677;50.942;4.028;2023-07-31T15:05:02;19.00;99.90
21037;DHT22;10677;50.942;4.028;2023-07-31T15:07:28;19.10;99.90
21037;DHT22;10677;50.942;4.028;2023-07-31T15:09:54;19.20;99.90
21037;DHT22;10677;50.942;4.028;2023-07-31T15:12:19;19.10;99.90
21037;DHT22;10677;50.942;4.028;2023-07-31T15:14:45;19.10;99.90
21037;DHT22;10677;50.942;4.028;2023-07-31T15:17:11;19.10;99.90
21037;DHT22;10677;50.942;4.028;2023-07-31T15:19:36;19.10;99.90
21037;DHT22;10677;50.942;4.028;2023-07-31T15:22:03;19.10;99.90
21037;DHT22;10677;50.942;4.028;2023-07-31T15:24:29;19.00;99.90
21037;DHT22;10677;50.942;4.028;2023-07-31T15:26:55;19.10;99.90
21037;DHT22;10677;50.942;4.028;2023-07-31T15:29:21;19.10;99.90
21037;DHT22;10677;50.942;4.028;2023-07-31T15:31:47;19.10;99.90
21037;DHT22;10677;50.942;4.028;2023-07-31T15:34:13;19.10;99.90
21037;DHT22;10677;50.942;4.028;2023-07-31T15:36:39;19.10;99.90
21037;DHT22;10677;50.942;4.028;2023-07-31T15:39:05;19.10;99.90
21037;DHT22;10677;50.942;4.028;2023-07-31T15:41:34;19.10;99.90
21037;DHT22;10677;50.942;4.028;2023-07-31T15:44:00;19.10;99.90
21037;DHT22;10677;50.942;4.028;2023-07-31T15:46:26;19.10;99.90
21037;DHT22;10677;50.942;4.028;2023-07-31T15:48:52;19.10;99.90